Time;durP1;ratioP1;P1;durP2;ratioP2;P2;SDS_P1;SDS_P2;PMS_P1;PMS_P2;Temp;Humidity;BMP_temperature;BMP_pressure;BME280_temperature;BME280_humidity;BME280_pressure;Samples;Min_cycle;Max_cycle;Signal;HPM_P1;HPM_P2
2023/07/11 00:01:56;;;;;;;6.23;5.70;;;24.10;99.90;;;;;;5053291;28;20457;-77
2023/07/11 00:04:23;;;;;;;5.83;5.13;;;24.00;99.90;;;;;;5053240;28;20523;-78
2023/07/11 00:06:52;;;;;;;7.93;5.80;;;24.00;99.90;;;;;;5053480;28;20446;-79
2023/07/11 00:09:21;;;;;;;6.10;5.53;;;23.90;99.90;;;;;;5054853;28;20449;-78
2023/07/11 00:11:48;;;;;;;6.10;5.47;;;23.90;99.90;;;;;;5053906;28;20528;-79
2023/07/11 00:14:14;;;;;;;7.00;6.30;;;23.90;99.90;;;;;;5053419;28;20472;-78
2023/07/11 00:16:41;;;;;;;7.97;7.13;;;23.90;99.90;;;;;;5056435;28;20964;-79
2023/07/11 00:19:08;;;;;;;6.33;5.73;;;23.80;99.90;;;;;;5055857;28;20845;-78
2023/07/11 00:21:35;;;;;;;5.93;5.43;;;23.80;99.90;;;;;;5055847;28;20917;-78
2023/07/11 00:24:04;;;;;;;6.40;5.80;;;23.80;99.90;;;;;;5057053;28;20465;-79
2023/07/11 00:26:33;;;;;;;10.07;5.80;;;23.60;99.90;;;;;;5058434;28;20461;-79
2023/07/11 00:29:25;;;;;;;6.23;5.67;;;23.60;99.90;;;;;;5062033;28;20446;-78
2023/07/11 00:31:59;;;;;;;5.97;5.37;;;23.60;99.90;;;;;;5058964;28;20474;-78
2023/07/11 00:38:02;;;;;;;6.27;5.67;;;23.50;99.90;;;;;;5038419;28;20437;-79
2023/07/11 00:40:31;;;;;;;6.23;5.73;;;23.40;99.90;;;;;;5058278;28;20519;-77
2023/07/11 00:43:04;;;;;;;7.13;6.43;;;23.40;99.90;;;;;;5057641;28;20822;-78
2023/07/11 00:46:15;;;;;;;7.70;5.63;;;23.40;99.90;;;;;;5061510;28;20442;-78
2023/07/11 00:48:53;;;;;;;6.80;6.10;;;23.40;99.90;;;;;;5062294;28;20457;-76
2023/07/11 00:55:09;;;;;;;6.53;5.93;;;23.20;99.90;;;;;;5031693;28;20480;-78
2023/07/11 00:57:45;;;;;;;5.93;5.37;;;23.10;99.90;;;;;;5060496;28;20446;-78
2023/07/11 01:00:16;;;;;;;6.50;5.90;;;23.10;99.90;;;;;;5060313;28;20453;-77
2023/07/11 01:03:09;;;;;;;7.50;6.10;;;23.10;99.90;;;;;;5063924;28;20446;-76
2023/07/11 01:05:42;;;;;;;7.30;6.70;;;23.10;99.90;;;;;;5061543;28;20442;-77
2023/07/11 01:08:24;;;;;;;6.50;5.90;;;23.00;99.90;;;;;;5063325;28;20450;-78
2023/07/11 01:10:54;;;;;;;6.20;5.60;;;22.90;99.90;;;;;;5062407;28;20526;-78
2023/07/11 01:13:22;;;;;;;6.30;5.70;;;22.90;99.90;;;;;;5057993;28;20492;-79
2023/07/11 01:22:07;;;;;;;6.13;5.63;;;22.70;99.90;;;;;;5067151;28;20795;-78
2023/07/11 01:28:17;;;;;;;6.27;5.53;;;22.40;99.90;;;;;;5051619;28;20452;-78
2023/07/11 01:30:49;;;;;;;7.37;6.63;;;22.40;99.90;;;;;;5067027;28;20493;-75
2023/07/11 01:33:18;;;;;;;7.17;6.60;;;22.50;99.90;;;;;;5061261;28;20493;-77
2023/07/11 01:35:57;;;;;;;6.07;5.40;;;22.40;99.90;;;;;;5059718;28;20514;-78
2023/07/11 01:38:28;;;;;;;7.00;6.40;;;22.40;99.90;;;;;;5059345;28;20865;-76
2023/07/11 01:41:18;;;;;;;8.10;6.70;;;22.50;99.90;;;;;;5059986;28;20461;-77
2023/07/11 01:43:47;;;;;;;6.33;5.73;;;22.40;99.90;;;;;;5057612;28;20470;-77
2023/07/11 01:46:15;;;;;;;6.83;6.23;;;22.30;99.90;;;;;;5058039;28;20434;-78
2023/07/11 01:49:07;;;;;;;7.00;6.33;;;22.30;99.90;;;;;;5063691;28;20484;-78
2023/07/11 01:51:45;;;;;;;6.53;6.00;;;22.00;99.90;;;;;;5061861;28;20509;-78
2023/07/11 01:54:18;;;;;;;6.80;6.20;;;22.20;99.90;;;;;;5062077;28;20545;-78
2023/07/11 01:56:45;;;;;;;7.00;6.40;;;22.20;99.90;;;;;;5060985;28;20454;-79
2023/07/11 01:59:28;;;;;;;8.63;7.27;;;22.10;99.90;;;;;;5056612;28;20449;-78
2023/07/11 02:01:59;;;;;;;10.37;6.77;;;22.10;99.90;;;;;;5067210;28;20481;-77
2023/07/11 02:04:38;;;;;;;6.93;6.40;;;22.00;99.90;;;;;;5069264;28;20474;-75
2023/07/11 02:07:11;;;;;;;7.40;6.70;;;21.90;99.90;;;;;;5066789;28;20445;-78
2023/07/11 02:09:41;;;;;;;6.90;6.30;;;21.80;99.90;;;;;;5069797;28;20416;-79
2023/07/11 02:12:19;;;;;;;7.13;6.03;;;21.80;99.90;;;;;;5067613;28;20549;-79
2023/07/11 02:50:10;;;;;;;6.90;6.30;;;21.50;99.90;;;;;;4891413;29;20476;-78
2023/07/11 02:55:56;;;;;;;7.47;6.67;;;21.40;99.90;;;;;;5035446;28;20484;-78
2023/07/11 03:01:56;;;;;;;8.90;7.10;;;21.30;99.90;;;;;;4792393;27;9717527;-78
2023/07/11 03:08:07;;;;;;;7.83;7.00;;;21.30;99.90;;;;;;5075729;28;20524;-79
2023/07/11 03:10:46;;;;;;;8.83;7.23;;;21.20;99.90;;;;;;5079344;28;20964;-76
2023/07/11 03:13:31;;;;;;;8.10;7.13;;;21.20;99.90;;;;;;5079012;28;20467;-78
2023/07/11 03:20:20;;;;;;;8.73;7.43;;;21.20;99.90;;;;;;5035080;28;20442;-80
2023/07/11 03:22:50;;;;;;;10.30;6.80;;;21.20;99.90;;;;;;5016720;28;20820;-78
2023/07/11 03:25:28;;;;;;;9.10;8.20;;;21.00;99.90;;;;;;5060902;28;20438;-78
2023/07/11 03:34:35;;;;;;;8.33;6.87;;;21.10;99.90;;;;;;5058839;28;20445;-77
2023/07/11 03:37:10;;;;;;;8.23;6.57;;;21.00;99.90;;;;;;4999339;28;20439;-79
2023/07/11 03:39:44;;;;;;;11.07;7.97;;;21.00;99.90;;;;;;5054011;28;20930;-79
2023/07/11 03:42:51;;;;;;;7.83;7.10;;;21.00;99.90;;;;;;5058199;28;21083;-76
2023/07/11 03:46:08;;;;;;;9.10;8.00;;;21.00;99.90;;;;;;5057350;28;20957;-76
2023/07/11 03:49:25;;;;;;;8.40;7.60;;;21.00;99.90;;;;;;5016337;28;20482;-76
2023/07/11 03:53:01;;;;;;;8.40;7.50;;;21.00;99.90;;;;;;4954579;29;20457;-77
2023/07/11 04:06:10;;;;;;;;;;;;;;;;;;;;;
2023/07/11 04:12:24;;;;;;;7.67;6.97;;;20.90;99.90;;;;;;4993361;28;20440;-77
2023/07/11 04:15:53;;;;;;;9.87;8.87;;;20.90;99.90;;;;;;4994145;28;20470;-77
2023/07/11 04:18:22;;;;;;;8.57;7.70;;;20.90;99.90;;;;;;5040041;28;20442;-78
2023/07/11 04:31:23;;;;;;;8.50;7.60;;;21.00;99.90;;;;;;4847742;29;20431;-78
2023/07/11 04:35:15;;;;;;;;;;;;;;;;;;;;;
2023/07/11 04:48:50;;;;;;;8.23;7.53;;;21.30;99.90;;;;;;4672934;30;20433;-76
2023/07/11 04:51:50;;;;;;;8.60;7.70;;;21.30;99.90;;;;;;4650839;30;20466;-77
2023/07/11 04:58:29;;;;;;;11.73;8.30;;;21.30;99.90;;;;;;4812628;29;20450;-77
2023/07/11 05:01:01;;;;;;;8.47;7.73;;;21.40;99.90;;;;;;4870331;28;20481;-79
2023/07/11 05:03:46;;;;;;;11.17;8.20;;;21.50;99.90;;;;;;5044529;28;20474;-78
2023/07/11 05:06:28;;;;;;;9.50;8.10;;;21.60;99.90;;;;;;5061482;28;20457;-80
2023/07/11 05:08:55;;;;;;;11.47;8.67;;;21.60;99.90;;;;;;5060747;28;20957;-80
2023/07/11 05:14:49;;;;;;;11.60;8.17;;;21.80;99.90;;;;;;4945888;29;20511;-77
2023/07/11 05:24:03;;;;;;;9.00;8.20;;;22.00;99.90;;;;;;4927740;29;20487;-77
2023/07/11 05:44:17;;;;;;;8.57;7.57;;;22.50;99.90;;;;;;4876236;29;20511;-77
2023/07/11 05:57:10;;;;;;;9.20;8.30;;;22.90;99.90;;;;;;4884865;29;20538;-78
2023/07/11 06:00:39;;;;;;;8.80;8.00;;;23.00;99.90;;;;;;4967241;29;20453;-77
2023/07/11 06:04:23;;;;;;;7.63;6.93;;;23.00;99.90;;;;;;4944565;29;20451;-77
2023/07/11 06:07:27;;;;;;;8.33;7.63;;;23.10;99.90;;;;;;4920972;29;20604;-77
2023/07/11 06:10:34;;;;;;;8.40;7.73;;;23.20;99.90;;;;;;4964562;28;20461;-76
2023/07/11 06:13:29;;;;;;;8.47;7.70;;;23.40;99.90;;;;;;4978874;28;20499;-77
2023/07/11 06:22:46;;;;;;;9.50;8.20;;;23.60;99.90;;;;;;5047745;28;20561;-76
2023/07/11 06:25:34;;;;;;;8.73;6.90;;;23.80;99.90;;;;;;5055874;28;20478;-77
2023/07/11 06:28:26;;;;;;;8.20;7.50;;;23.90;99.90;;;;;;5073886;28;20514;-77
2023/07/11 06:31:04;;;;;;;9.30;7.70;;;24.00;99.90;;;;;;5074593;28;20445;-78
2023/07/11 06:33:57;;;;;;;9.50;8.50;;;24.10;99.90;;;;;;5074564;28;20446;-77
2023/07/11 06:36:32;;;;;;;14.87;13.43;;;24.10;99.90;;;;;;5073978;28;20448;-75
2023/07/11 06:39:03;;;;;;;14.77;13.47;;;24.20;99.90;;;;;;5074627;28;20437;-76
2023/07/11 06:41:38;;;;;;;11.47;7.67;;;24.30;99.90;;;;;;5076489;28;20532;-77
2023/07/11 06:44:17;;;;;;;8.50;7.60;;;24.40;99.90;;;;;;5076559;28;20471;-77
2023/07/11 06:47:12;;;;;;;8.67;7.77;;;24.50;99.90;;;;;;5076363;28;20434;-78
2023/07/11 06:50:01;;;;;;;9.97;7.70;;;24.70;99.90;;;;;;5075364;28;20410;-77
2023/07/11 07:09:39;;;;;;;8.07;7.07;;;25.20;99.90;;;;;;4919008;29;20454;-76
2023/07/11 07:14:54;;;;;;;9.80;6.80;;;25.50;99.90;;;;;;4994182;28;21047;-78
2023/07/11 07:18:21;;;;;;;9.27;7.43;;;25.40;99.90;;;;;;5035171;28;20454;-78
2023/07/11 07:21:26;;;;;;;9.60;7.50;;;25.60;99.90;;;;;;5059880;28;20469;-78
2023/07/11 07:24:29;;;;;;;8.20;7.50;;;25.70;99.90;;;;;;5051331;28;20566;-80
2023/07/11 07:27:07;;;;;;;11.40;7.17;;;25.80;99.90;;;;;;5058638;28;20894;-78
2023/07/11 07:32:37;;;;;;;8.30;7.07;;;25.80;99.90;;;;;;5057188;28;20913;-78
2023/07/11 07:35:18;;;;;;;7.80;7.00;;;25.80;99.90;;;;;;5057258;28;20450;-78
2023/07/11 07:41:04;;;;;;;7.60;6.80;;;26.20;99.90;;;;;;5020347;28;20472;-79
2023/07/11 07:43:53;;;;;;;8.67;7.20;;;26.40;99.90;;;;;;5030521;28;20471;-79
2023/07/11 07:47:20;;;;;;;;;;;;;;;;;;;;;
2023/07/11 07:50:28;;;;;;;8.00;6.93;;;26.80;99.90;;;;;;5008874;28;20465;-79
2023/07/11 07:53:30;;;;;;;;;;;;;;;;;;;;;
2023/07/11 07:56:27;;;;;;;8.80;8.10;;;27.00;99.90;;;;;;5067192;28;20444;-78
2023/07/11 07:59:04;;;;;;;7.90;7.10;;;27.20;99.90;;;;;;5070838;28;20449;-79
2023/07/11 08:05:30;;;;;;;7.70;6.90;;;27.30;99.90;;;;;;5019484;28;20479;-79
2023/07/11 08:08:14;;;;;;;10.70;7.40;;;27.50;99.90;;;;;;5023100;28;20447;-79
2023/07/11 08:10:59;;;;;;;7.93;7.10;;;27.70;99.90;;;;;;5031894;28;21006;-78
2023/07/11 08:17:40;;;;;;;9.93;7.83;;;27.90;99.90;;;;;;5008406;28;20436;-78
2023/07/11 08:20:47;;;;;;;8.33;7.53;;;28.10;99.90;;;;;;4969402;29;20450;-78
2023/07/11 08:30:39;;;;;;;7.37;6.77;;;28.50;99.90;;;;;;5025689;28;20438;-78
2023/07/11 08:33:36;;;;;;;8.87;8.07;;;28.70;99.90;;;;;;4986655;28;20464;-79
2023/07/11 08:39:21;;;;;;;7.77;6.97;;;29.00;99.90;;;;;;4972425;28;20497;-76
2023/07/11 08:42:01;;;;;;;9.10;7.53;;;28.80;99.90;;;;;;4982530;28;20905;-78
2023/07/11 08:44:41;;;;;;;8.20;7.60;;;29.30;99.90;;;;;;4978808;28;20468;-78
2023/07/11 08:47:34;;;;;;;9.57;6.77;;;29.50;99.90;;;;;;4982604;28;20544;-78
2023/07/11 08:50:16;;;;;;;6.97;6.30;;;29.60;99.90;;;;;;4983337;28;20458;-79
2023/07/11 08:55:58;;;;;;;8.37;7.50;;;30.10;99.90;;;;;;4950849;28;20504;-77
2023/07/11 08:58:39;;;;;;;7.00;6.27;;;30.30;99.90;;;;;;5042034;28;20521;-78
2023/07/11 09:04:53;;;;;;;10.13;9.20;;;30.70;99.90;;;;;;5046950;28;20473;-78
2023/07/11 09:11:19;;;;;;;7.90;7.20;;;31.60;99.90;;;;;;5041720;28;20453;-77
2023/07/11 09:14:39;;;;;;;8.37;7.23;;;31.40;99.90;;;;;;5047795;28;20474;-79
2023/07/11 09:17:21;;;;;;;7.47;6.83;;;31.30;99.90;;;;;;5047338;28;20487;-78
2023/07/11 09:20:07;;;;;;;8.87;7.57;;;31.60;99.90;;;;;;5046420;28;20447;-78
2023/07/11 09:23:15;;;;;;;7.97;7.37;;;31.50;99.90;;;;;;5064078;28;20483;-78
2023/07/11 09:32:28;;;;;;;7.67;6.93;;;32.40;99.90;;;;;;5067052;28;20434;-79
2023/07/11 09:35:53;;;;;;;7.53;6.80;;;32.70;99.90;;;;;;5045265;28;20465;-79
2023/07/11 09:42:37;;;;;;;7.57;6.87;;;33.40;99.90;;;;;;5063996;28;20493;-78
2023/07/11 09:45:53;;;;;;;;;;;;;;;;;;;;;
2023/07/11 10:06:35;;;;;;;7.10;6.50;;;35.10;93.80;;;;;;5007781;28;20516;-78
2023/07/11 10:10:13;;;;;;;7.03;6.47;;;35.20;93.10;;;;;;5038320;28;20461;-78
2023/07/11 10:13:12;;;;;;;7.40;6.63;;;35.30;92.80;;;;;;5039325;28;20450;-79
2023/07/11 10:18:37;;;;;;;7.00;6.50;;;35.70;91.30;;;;;;4953110;28;20529;-79
2023/07/11 10:21:35;;;;;;;7.37;6.37;;;35.40;91.30;;;;;;5052009;28;20480;-76
2023/07/11 10:24:24;;;;;;;6.77;6.13;;;35.70;91.20;;;;;;5062671;28;20480;-78
2023/07/11 10:27:25;;;;;;;7.20;6.60;;;35.50;90.80;;;;;;5062187;28;20529;-78
2023/07/11 10:30:31;;;;;;;6.90;6.40;;;35.40;91.00;;;;;;5059620;28;20462;-78
2023/07/11 10:33:31;;;;;;;6.83;6.33;;;35.70;90.30;;;;;;5058021;28;20438;-78
2023/07/11 10:47:08;;;;;;;7.63;7.03;;;35.70;86.40;;;;;;4963335;28;20982;-78
2023/07/11 10:50:02;;;;;;;7.00;6.40;;;36.10;85.20;;;;;;4969796;28;20454;-78
2023/07/11 10:52:53;;;;;;;6.90;6.33;;;36.80;83.50;;;;;;5018590;28;20515;-79
2023/07/11 11:02:14;;;;;;;6.60;6.00;;;36.40;82.20;;;;;;5060270;28;20576;-77
2023/07/11 11:05:18;;;;;;;8.03;6.90;;;36.50;83.00;;;;;;5063482;28;20469;-79
2023/07/11 11:24:53;;;;;;;7.50;6.90;;;36.30;82.80;;;;;;5056012;28;20446;-77
2023/07/11 11:28:04;;;;;;;8.03;6.93;;;36.70;81.50;;;;;;5068024;28;20834;-78
2023/07/11 11:38:25;;;;;;;;;;;;;;;;;;;;;
2023/07/11 11:45:04;;;;;;;10.03;6.67;;;36.10;82.90;;;;;;5042557;28;20462;-76
2023/07/11 11:52:14;;;;;;;9.67;7.53;;;36.40;81.10;;;;;;4914133;29;20456;-76
2023/07/11 11:54:58;;;;;;;7.47;6.87;;;36.30;82.20;;;;;;4965618;28;20476;-79
2023/07/11 12:02:20;;;;;;;7.10;6.60;;;36.70;80.80;;;;;;4991384;28;20429;-76
2023/07/11 12:05:21;;;;;;;8.13;7.40;;;36.80;81.00;;;;;;4985024;28;20461;-77
2023/07/11 12:15:17;;;;;;;7.03;6.43;;;37.00;79.30;;;;;;5070967;28;20468;-78
2023/07/11 12:18:26;;;;;;;7.17;6.53;;;37.40;79.40;;;;;;5069255;28;20450;-77
2023/07/11 12:21:40;;;;;;;7.33;6.70;;;37.70;77.80;;;;;;5075986;28;20449;-77
2023/07/11 12:24:26;;;;;;;7.70;7.10;;;37.70;76.80;;;;;;5049762;28;20462;-77
2023/07/11 12:26:55;;;;;;;7.20;6.60;;;37.40;78.00;;;;;;5061366;28;20437;-77
2023/07/11 12:29:49;;;;;;;7.60;7.00;;;36.90;78.20;;;;;;5063557;28;20442;-78
2023/07/11 12:32:48;;;;;;;8.43;7.40;;;37.00;77.90;;;;;;5053909;28;20449;-79
2023/07/11 12:35:19;;;;;;;13.33;8.00;;;36.80;77.20;;;;;;5054796;28;20456;-77
2023/07/11 12:38:06;;;;;;;11.93;7.73;;;36.80;75.90;;;;;;5056251;28;20456;-79
2023/07/11 12:40:40;;;;;;;7.83;7.03;;;37.10;76.30;;;;;;5073117;28;20446;-79
2023/07/11 12:43:17;;;;;;;7.10;6.60;;;37.00;76.50;;;;;;5077062;28;20493;-78
2023/07/11 12:45:49;;;;;;;7.40;6.80;;;37.40;75.20;;;;;;5056098;28;20929;-78
2023/07/11 12:48:18;;;;;;;9.30;6.90;;;37.20;75.60;;;;;;5054355;28;20442;-78
2023/07/11 12:50:47;;;;;;;7.00;6.53;;;37.60;75.20;;;;;;5055928;28;20929;-80
2023/07/11 12:53:14;;;;;;;6.77;6.17;;;37.90;73.80;;;;;;5055243;28;20457;-78
2023/07/11 12:55:42;;;;;;;7.60;7.00;;;37.60;74.10;;;;;;5054194;28;20449;-78
2023/07/11 12:58:17;;;;;;;7.77;7.07;;;37.10;74.40;;;;;;5057029;28;20479;-78
2023/07/11 13:00:44;;;;;;;7.57;7.00;;;37.20;74.50;;;;;;5055226;28;20472;-78
2023/07/11 13:03:22;;;;;;;6.53;6.03;;;38.20;71.40;;;;;;5054400;28;20485;-78
2023/07/11 13:05:49;;;;;;;10.37;7.10;;;38.40;71.80;;;;;;5055769;28;20499;-78
2023/07/11 13:08:16;;;;;;;6.77;6.10;;;38.10;71.50;;;;;;5057065;28;20505;-78
2023/07/11 13:10:49;;;;;;;10.30;6.07;;;38.00;70.20;;;;;;5055217;28;20940;-78
2023/07/11 13:13:17;;;;;;;6.90;6.37;;;38.70;68.80;;;;;;5054355;28;20469;-76
2023/07/11 13:15:44;;;;;;;6.70;6.20;;;39.20;67.80;;;;;;5053677;28;20489;-79
2023/07/11 13:18:28;;;;;;;8.37;7.40;;;38.80;67.00;;;;;;5055951;28;20454;-78
2023/07/11 13:20:55;;;;;;;6.23;5.83;;;38.50;68.30;;;;;;5054368;28;20445;-77
2023/07/11 13:23:22;;;;;;;7.97;7.10;;;;;;;;;;5052741;28;20485;-77
2023/07/11 13:25:49;;;;;;;7.57;6.87;;;39.20;66.40;;;;;;5054567;28;20805;-78
2023/07/11 13:28:20;;;;;;;6.87;6.33;;;39.20;66.50;;;;;;5054819;28;20499;-78
2023/07/11 13:30:54;;;;;;;6.90;6.30;;;39.30;65.80;;;;;;5053485;28;20445;-79
2023/07/11 13:33:21;;;;;;;7.60;6.90;;;38.90;65.60;;;;;;5054900;28;20457;-79
2023/07/11 13:35:52;;;;;;;7.73;7.13;;;38.40;67.30;;;;;;5056027;28;20441;-80
2023/07/11 13:38:19;;;;;;;10.10;7.57;;;38.00;68.10;;;;;;5054233;28;20433;-78
2023/07/11 13:40:46;;;;;;;7.03;6.40;;;37.60;69.70;;;;;;5058093;28;20449;-78
2023/07/11 13:43:19;;;;;;;7.00;6.50;;;37.50;69.70;;;;;;5058488;28;20481;-79
2023/07/11 13:45:46;;;;;;;7.57;7.03;;;37.70;69.60;;;;;;5055243;28;20446;-78
2023/07/11 13:48:30;;;;;;;7.37;6.67;;;37.10;69.70;;;;;;5054091;28;20442;-78
2023/07/11 13:51:15;;;;;;;7.40;6.80;;;37.20;70.30;;;;;;5053623;28;20716;-78
2023/07/11 13:53:46;;;;;;;7.73;7.10;;;37.10;70.80;;;;;;5052736;28;20453;-79
2023/07/11 13:56:15;;;;;;;7.53;6.83;;;37.80;69.60;;;;;;5052932;28;20448;-80
2023/07/11 13:58:43;;;;;;;7.40;6.90;;;37.90;68.40;;;;;;5055702;28;20450;-79
2023/07/11 14:01:14;;;;;;;7.37;6.77;;;38.10;67.20;;;;;;5056199;28;20934;-79
2023/07/11 14:03:41;;;;;;;8.07;7.27;;;38.30;67.40;;;;;;5057928;28;20565;-79
2023/07/11 14:06:13;;;;;;;7.80;7.00;;;38.40;67.70;;;;;;5056585;28;20451;-79
2023/07/11 14:08:40;;;;;;;7.90;7.10;;;38.50;67.50;;;;;;5055511;28;20446;-78
2023/07/11 14:11:14;;;;;;;7.10;6.60;;;38.30;66.70;;;;;;5057552;28;20511;-78
2023/07/11 14:13:41;;;;;;;7.40;6.90;;;38.40;66.50;;;;;;5056971;28;20457;-79
2023/07/11 14:16:10;;;;;;;7.37;6.67;;;38.40;65.80;;;;;;5057084;28;20470;-79
2023/07/11 14:18:37;;;;;;;10.60;7.60;;;38.20;65.60;;;;;;5055538;28;20442;-78
2023/07/11 14:21:04;;;;;;;7.97;7.23;;;37.50;66.60;;;;;;5055137;28;20481;-79
2023/07/11 14:23:32;;;;;;;7.70;7.10;;;37.10;67.60;;;;;;5056131;28;20497;-79
2023/07/11 14:25:59;;;;;;;8.70;7.60;;;37.60;67.20;;;;;;5056661;28;20446;-80
2023/07/11 14:28:27;;;;;;;8.30;7.50;;;37.70;66.80;;;;;;5057349;28;20486;-79
2023/07/11 14:30:59;;;;;;;7.40;6.70;;;38.00;66.70;;;;;;5055988;28;20848;-78
2023/07/11 14:33:31;;;;;;;8.40;7.60;;;37.70;65.60;;;;;;5053932;28;20507;-79
2023/07/11 14:35:58;;;;;;;8.23;7.53;;;38.20;64.40;;;;;;5056195;28;20460;-78
2023/07/11 14:38:26;;;;;;;7.57;6.83;;;;;;;;;;5059545;28;20449;-78
2023/07/11 14:40:53;;;;;;;8.77;7.90;;;;;;;;;;5056275;28;20472;-77
2023/07/11 14:43:22;;;;;;;8.17;7.53;;;39.10;57.60;;;;;;5054570;28;20485;-77
2023/07/11 14:45:49;;;;;;;8.03;7.00;;;38.00;58.50;;;;;;5052826;28;20472;-77
2023/07/11 14:48:18;;;;;;;8.80;8.00;;;37.50;58.40;;;;;;5051535;28;20441;-78
2023/07/11 14:50:48;;;;;;;8.10;7.50;;;37.80;57.40;;;;;;5062708;28;20461;-77
2023/07/11 14:53:29;;;;;;;8.60;7.90;;;38.60;55.60;;;;;;5071738;28;20458;-79
2023/07/11 14:55:57;;;;;;;8.67;7.97;;;;;;;;;;5073257;28;20468;-78
2023/07/11 14:58:24;;;;;;;8.50;7.80;;;;;;;;;;5071254;28;20448;-78
2023/07/11 15:00:51;;;;;;;9.37;8.47;;;39.70;53.90;;;;;;5072920;28;20520;-78
2023/07/11 15:03:19;;;;;;;8.83;8.03;;;39.70;53.90;;;;;;5071167;28;20531;-78
2023/07/11 15:05:48;;;;;;;8.47;7.60;;;39.10;57.00;;;;;;5072553;28;20441;-79
2023/07/11 15:08:18;;;;;;;7.93;7.33;;;38.90;60.00;;;;;;5072260;28;20930;-78
2023/07/11 15:10:45;;;;;;;8.50;7.80;;;39.20;61.90;;;;;;5072594;28;20445;-77
2023/07/11 15:13:12;;;;;;;7.80;7.10;;;38.70;62.00;;;;;;5070962;28;20449;-79
2023/07/11 15:15:39;;;;;;;8.70;7.37;;;38.60;62.20;;;;;;5070860;28;20522;-78
2023/07/11 15:18:09;;;;;;;8.87;8.07;;;38.60;62.60;;;;;;5070286;28;20444;-78
2023/07/11 15:20:35;;;;;;;7.87;7.17;;;38.50;63.90;;;;;;5063050;28;20442;-78
2023/07/11 15:23:03;;;;;;;7.23;6.73;;;39.00;63.00;;;;;;5059990;28;20476;-79
2023/07/11 15:25:33;;;;;;;8.30;7.50;;;39.10;63.70;;;;;;5057144;28;20437;-79
2023/07/11 15:28:01;;;;;;;8.07;7.47;;;38.70;63.60;;;;;;5055339;28;20448;-79
2023/07/11 15:30:29;;;;;;;8.83;8.03;;;38.80;62.70;;;;;;5052475;28;20441;-79
2023/07/11 15:32:56;;;;;;;9.10;8.07;;;38.40;60.90;;;;;;5057660;28;20838;-78
2023/07/11 15:35:25;;;;;;;8.60;7.80;;;39.10;59.40;;;;;;5052628;28;20450;-79
2023/07/11 15:37:53;;;;;;;8.27;7.57;;;39.20;59.80;;;;;;5053171;28;20750;-79
2023/07/11 15:40:24;;;;;;;10.50;7.17;;;39.30;60.80;;;;;;5054413;28;20446;-78
2023/07/11 15:42:50;;;;;;;8.03;7.43;;;39.50;60.60;;;;;;5055436;28;20488;-79
2023/07/11 15:45:23;;;;;;;9.10;8.40;;;39.00;62.10;;;;;;5055746;28;20484;-78
2023/07/11 15:47:50;;;;;;;8.37;7.63;;;38.30;61.90;;;;;;5055146;28;21043;-79
2023/07/11 15:50:19;;;;;;;8.70;7.90;;;38.40;62.70;;;;;;5051362;28;20520;-77
2023/07/11 15:52:46;;;;;;;8.13;7.43;;;37.40;63.60;;;;;;5050664;28;20445;-78
2023/07/11 15:55:15;;;;;;;8.50;7.73;;;37.40;63.90;;;;;;5051467;28;20462;-79
2023/07/11 15:57:43;;;;;;;8.37;7.77;;;37.70;64.00;;;;;;5054651;28;20452;-79
2023/07/11 16:00:15;;;;;;;8.40;7.80;;;37.70;64.30;;;;;;5054993;28;20446;-80
2023/07/11 16:02:42;;;;;;;10.00;7.80;;;37.10;64.60;;;;;;5053180;28;20487;-78
2023/07/11 16:05:10;;;;;;;8.30;7.60;;;37.30;64.70;;;;;;5056210;28;20457;-80
2023/07/11 16:07:37;;;;;;;9.67;8.67;;;37.30;64.20;;;;;;5059328;28;20441;-81
2023/07/11 16:10:16;;;;;;;9.10;8.30;;;36.90;64.00;;;;;;5059362;28;20449;-80
2023/07/11 16:12:44;;;;;;;9.37;8.50;;;36.80;64.30;;;;;;5058502;28;20711;-79
2023/07/11 16:15:12;;;;;;;9.90;9.10;;;37.00;64.30;;;;;;5058695;28;20465;-79
2023/07/11 16:17:39;;;;;;;9.83;8.83;;;36.40;63.90;;;;;;5056430;28;20433;-79
2023/07/11 16:20:16;;;;;;;9.80;8.83;;;36.30;64.50;;;;;;5055989;28;20434;-80
2023/07/11 16:22:43;;;;;;;9.43;8.57;;;36.10;65.10;;;;;;5056405;28;20468;-79
2023/07/11 16:25:11;;;;;;;9.07;8.27;;;36.40;64.50;;;;;;5056862;28;20474;-80
2023/07/11 16:27:40;;;;;;;9.10;8.50;;;36.00;65.20;;;;;;5058510;28;20442;-78
2023/07/11 16:30:18;;;;;;;9.07;8.30;;;36.00;66.00;;;;;;5056911;28;20449;-81
2023/07/11 16:42:32;;;;;;;9.17;8.37;;;35.60;67.30;;;;;;5065494;28;20436;-79
2023/07/11 16:45:12;;;;;;;10.70;8.97;;;35.40;67.70;;;;;;5065469;28;20482;-79
2023/07/11 16:47:47;;;;;;;9.37;8.57;;;35.10;67.30;;;;;;5066708;28;20445;-80
2023/07/11 16:50:37;;;;;;;9.00;8.10;;;34.80;66.50;;;;;;5065270;28;20453;-78
2023/07/11 16:56:59;;;;;;;9.20;8.10;;;34.40;66.20;;;;;;5061969;28;20454;-79
2023/07/11 16:59:30;;;;;;;10.07;9.03;;;34.60;66.50;;;;;;5069147;28;20468;-79
2023/07/11 17:02:04;;;;;;;8.33;7.60;;;34.60;66.50;;;;;;5070699;28;20457;-81
2023/07/11 17:04:37;;;;;;;8.30;7.60;;;34.20;67.60;;;;;;5071961;28;20477;-78
2023/07/11 17:13:10;;;;;;;8.60;7.70;;;34.30;68.60;;;;;;5070656;28;20426;-79
2023/07/11 17:15:37;;;;;;;8.47;7.77;;;34.30;68.90;;;;;;5061984;28;20450;-80
2023/07/11 17:18:07;;;;;;;8.60;7.80;;;34.30;69.40;;;;;;5056865;28;20862;-81
2023/07/11 17:20:34;;;;;;;8.80;8.00;;;34.50;69.30;;;;;;5055328;28;20964;-78
2023/07/11 17:23:01;;;;;;;9.30;8.50;;;34.70;69.00;;;;;;5054485;28;20454;-79
2023/07/11 17:25:28;;;;;;;10.03;7.97;;;34.60;68.90;;;;;;5054328;28;20782;-79
2023/07/11 17:27:55;;;;;;;8.53;7.53;;;34.60;68.90;;;;;;5056023;28;20503;-78
2023/07/11 17:30:23;;;;;;;10.40;8.00;;;34.60;69.00;;;;;;5054297;28;20492;-78
2023/07/11 17:32:49;;;;;;;8.57;7.50;;;34.70;69.00;;;;;;5055949;28;20491;-79
2023/07/11 17:35:17;;;;;;;9.07;8.17;;;34.70;69.40;;;;;;5058830;28;20442;-79
2023/07/11 17:37:47;;;;;;;9.10;8.40;;;34.70;69.50;;;;;;5054443;28;20445;-79
2023/07/11 17:40:18;;;;;;;8.87;8.10;;;34.70;70.00;;;;;;5054153;28;20442;-80
2023/07/11 17:42:45;;;;;;;9.33;8.53;;;34.60;70.50;;;;;;5053560;28;20449;-79
2023/07/11 17:45:12;;;;;;;9.07;8.27;;;34.50;70.80;;;;;;5054928;28;21045;-80
2023/07/11 17:47:40;;;;;;;9.00;8.20;;;34.40;71.00;;;;;;5053595;28;20445;-79
2023/07/11 17:50:19;;;;;;;8.80;8.00;;;34.40;71.20;;;;;;5055250;28;20445;-78
2023/07/11 17:52:46;;;;;;;9.23;8.30;;;34.50;71.60;;;;;;5053737;28;20442;-79
2023/07/11 17:55:14;;;;;;;8.33;7.77;;;34.50;71.80;;;;;;5055198;28;20544;-78
2023/07/11 17:57:41;;;;;;;7.97;7.20;;;34.50;71.90;;;;;;5055438;28;20848;-78
2023/07/11 18:00:13;;;;;;;8.67;7.77;;;34.30;71.90;;;;;;5054896;28;20442;-79
2023/07/11 18:02:41;;;;;;;8.93;8.07;;;34.20;72.30;;;;;;5054085;28;20462;-81
2023/07/11 18:05:14;;;;;;;8.90;8.20;;;34.20;72.70;;;;;;5055359;28;20485;-78
2023/07/11 18:07:44;;;;;;;9.17;8.20;;;34.10;73.00;;;;;;5059400;28;20445;-79
2023/07/11 18:10:20;;;;;;;9.00;8.33;;;34.00;73.40;;;;;;5065842;28;20784;-78
2023/07/11 18:12:47;;;;;;;8.93;8.23;;;33.90;73.50;;;;;;5064842;28;20503;-79
2023/07/11 18:15:14;;;;;;;10.00;8.63;;;33.80;73.90;;;;;;5066722;28;20465;-78
2023/07/11 18:17:42;;;;;;;9.93;8.67;;;33.70;75.00;;;;;;5067238;28;20442;-77
2023/07/11 18:20:19;;;;;;;9.20;8.50;;;33.60;74.60;;;;;;5068547;28;20440;-80
2023/07/11 18:22:47;;;;;;;9.80;8.63;;;33.50;75.50;;;;;;5063447;28;20471;-78
2023/07/11 18:25:16;;;;;;;9.13;8.43;;;33.40;75.70;;;;;;5066970;28;20477;-79
2023/07/11 18:27:43;;;;;;;8.97;8.13;;;33.30;76.00;;;;;;5065597;28;20464;-80
2023/07/11 18:30:17;;;;;;;12.50;11.50;;;33.20;76.20;;;;;;5065202;28;20458;-81
2023/07/11 18:32:46;;;;;;;10.47;8.40;;;33.10;76.50;;;;;;5062173;28;20849;-81
2023/07/11 18:35:13;;;;;;;13.17;9.30;;;33.10;76.90;;;;;;5058652;28;20468;-79
2023/07/11 18:37:42;;;;;;;9.73;8.80;;;32.90;77.20;;;;;;5056821;28;20448;-80
2023/07/11 18:40:27;;;;;;;9.17;8.47;;;32.90;77.50;;;;;;5059990;28;20450;-78
2023/07/11 18:42:55;;;;;;;13.00;11.80;;;32.90;78.20;;;;;;5061530;28;20457;-83
2023/07/11 18:45:23;;;;;;;9.03;8.13;;;32.70;78.40;;;;;;5057418;28;20474;-81
2023/07/11 18:47:53;;;;;;;10.60;9.70;;;32.50;78.70;;;;;;5056167;28;20457;-80
2023/07/11 18:50:23;;;;;;;10.20;9.30;;;32.70;79.30;;;;;;5057788;28;20446;-81
2023/07/11 18:52:50;;;;;;;9.23;8.33;;;32.40;79.40;;;;;;5057071;28;20446;-80
2023/07/11 18:55:17;;;;;;;10.57;9.57;;;32.30;79.70;;;;;;5060518;28;20449;-82
2023/07/11 18:57:46;;;;;;;10.00;9.00;;;32.10;80.20;;;;;;5059662;28;20503;-84
2023/07/11 19:00:19;;;;;;;10.43;9.63;;;32.00;80.70;;;;;;5060812;28;20455;-81
2023/07/11 19:02:46;;;;;;;9.70;8.90;;;31.80;81.10;;;;;;5060823;28;20434;-79
2023/07/11 19:05:15;;;;;;;10.77;9.67;;;32.00;81.20;;;;;;5058980;28;20497;-80
2023/07/11 19:07:42;;;;;;;10.10;9.10;;;31.90;81.60;;;;;;5059923;28;20811;-81
2023/07/11 19:10:18;;;;;;;10.13;9.07;;;31.90;82.00;;;;;;5062600;28;20985;-79
2023/07/11 19:12:45;;;;;;;9.70;8.80;;;31.80;81.60;;;;;;5061490;28;20475;-79
2023/07/11 19:15:15;;;;;;;9.90;9.10;;;31.60;82.00;;;;;;5060033;28;20466;-79